LLHA/HFA METAR and TAF weather

Enter ICAO airport designator
Station Type Date Time Source
LLHA METAR 2020/08/14 15:50 UTC NOAA

LLHA 141550Z 28009KT 9999 SCT022 29/23 Q1003


Station Type Date Time Source
LLHA Decoded METAR 2020/08/14 15:50 UTC NOAA

Sde-Haifa Haifa, Israel (LLHA) 32-48N 035-02E 8M
Aug 14, 2020 - 11:50 AM EDT / 2020.08.14 1550 UTC
Wind: from the W (280 degrees) at 10 MPH (9 KT):0
Visibility: greater than 7 mile(s):0
Sky conditions: partly cloudy
Temperature: 84 F (29 C)
Dew Point: 73 F (23 C)
Relative Humidity: 70%
Pressure (altimeter): 29.62 in. Hg (1003 hPa)
ob: LLHA 141550Z 28009KT 9999 SCT022 29/23 Q1003
cycle: 16

Station Type Date Time Source
LLHA TAF 2020/08/14 12:00 UTC NOAA

TAF LLHA 141102Z 1412/1512 29010KT 9999 SCT020
BECMG 1415/1417 25005KT PROB40 1417/1506 VRB04KT BKN017
BECMG 1507/1509 29010KT CAVOK TX32/1412Z TN27/1503Z

Example: see airport list